Time;durP1;ratioP1;P1;durP2;ratioP2;P2;SDS_P1;SDS_P2;PMS_P1;PMS_P2;Temp;Humidity;BMP_temperature;BMP_pressure;BME280_temperature;BME280_humidity;BME280_pressure;Samples;Min_cycle;Max_cycle;Signal;HPM_P1;HPM_P2
2023/05/23 00:01:57;;;;;;;21.67;13.18;;;;;;;;;;5032105;28;20037;-60
2023/05/23 00:04:25;;;;;;;20.27;13.13;;;;;;;;;;5041349;28;20041;-59
2023/05/23 00:06:52;;;;;;;22.48;13.48;;;;;;;;;;5039045;28;20043;-60
2023/05/23 00:09:18;;;;;;;20.65;12.93;;;;;;;;;;5020950;28;20037;-60
2023/05/23 00:11:44;;;;;;;23.80;14.60;;;;;;;;;;5022173;28;20541;-60
2023/05/23 00:14:12;;;;;;;20.48;13.10;;;;;;;;;;5037844;28;20059;-60
2023/05/23 00:16:43;;;;;;;22.23;12.73;;;;;;;;;;5036686;28;20049;-60
2023/05/23 00:19:10;;;;;;;20.42;11.93;;;;;;;;;;5033427;28;20046;-60
2023/05/23 00:21:37;;;;;;;20.67;13.10;;;;;;;;;;5020356;28;20037;-60
2023/05/23 00:24:03;;;;;;;23.13;14.07;;;;;;;;;;5034379;28;20061;-60
2023/05/23 00:26:30;;;;;;;24.83;14.32;;;;;;;;;;5027814;28;20536;-60
2023/05/23 00:28:56;;;;;;;21.92;13.32;;;;;;;;;;5026762;28;20434;-59
2023/05/23 00:31:23;;;;;;;26.75;13.52;;;;;;;;;;5032015;28;20037;-59
2023/05/23 00:33:49;;;;;;;25.52;13.45;;;;;;;;;;5034917;28;20052;-60
2023/05/23 00:36:17;;;;;;;25.17;13.82;;;;;;;;;;5042818;28;20289;-58
2023/05/23 00:38:44;;;;;;;24.35;13.80;;;;;;;;;;5024359;28;20476;-60
2023/05/23 00:41:11;;;;;;;27.08;16.13;;;;;;;;;;5034844;28;20032;-60
2023/05/23 00:43:37;;;;;;;24.15;14.82;;;;;;;;;;5028362;28;20044;-60
2023/05/23 00:46:04;;;;;;;22.95;14.43;;;;;;;;;;5039390;28;20152;-60
2023/05/23 00:48:31;;;;;;;29.23;17.00;;;;;;;;;;5020843;28;20491;-60
2023/05/23 00:50:57;;;;;;;27.00;16.15;;;;;;;;;;5019109;28;20033;-60
2023/05/23 00:53:24;;;;;;;33.83;17.75;;;;;;;;;;5038051;28;20042;-60
2023/05/23 00:55:50;;;;;;;33.67;19.38;;;;;;;;;;5035203;28;20044;-60
2023/05/23 00:58:17;;;;;;;29.80;17.42;;;;;;;;;;5023329;28;20227;-60
2023/05/23 01:00:43;;;;;;;35.85;18.27;;;;;;;;;;5019260;28;20491;-61
2023/05/23 01:03:16;;;;;;;33.30;19.13;;;;;;;;;;5041238;28;20049;-60
2023/05/23 01:05:43;;;;;;;40.58;21.13;;;;;;;;;;5038863;28;20034;-60
2023/05/23 01:08:09;;;;;;;43.05;21.63;;;;;;;;;;5032512;28;20053;-60
2023/05/23 01:10:36;;;;;;;40.15;21.77;;;;;;;;;;5022759;28;20048;-60
2023/05/23 01:13:12;;;;;;;52.05;25.10;;;;;;;;;;5038336;28;20053;-61
2023/05/23 01:15:54;;;;;;;42.65;23.17;;;;;;;;;;5032726;28;20056;-59
2023/05/23 01:18:32;;;;;;;42.13;21.27;;;;;;;;;;5033302;28;20045;-60
2023/05/23 01:21:05;;;;;;;45.00;22.35;;;;;;;;;;5036553;28;20471;-60
2023/05/23 01:23:43;;;;;;;42.80;22.75;;;;;;;;;;5037234;28;20044;-60
2023/05/23 01:26:18;;;;;;;46.80;23.35;;;;;;;;;;5021446;28;20048;-60
2023/05/23 01:28:47;;;;;;;41.53;20.52;;;;;;;;;;5038790;28;20025;-60
2023/05/23 01:31:15;;;;;;;43.43;21.33;;;;;;;;;;5023348;28;20028;-60
2023/05/23 01:33:42;;;;;;;44.65;22.55;;;;;;;;;;5030548;28;20041;-59
2023/05/23 01:36:11;;;;;;;44.70;22.50;;;;;;;;;;5019069;28;20036;-60
2023/05/23 01:38:37;;;;;;;47.15;23.95;;;;;;;;;;5035303;28;20487;-60
2023/05/23 01:41:03;;;;;;;44.60;24.30;;;;;;;;;;5006760;28;20141;-60
2023/05/23 01:43:30;;;;;;;50.90;25.67;;;;;;;;;;5030152;28;20036;-60
2023/05/23 01:45:59;;;;;;;48.97;25.77;;;;;;;;;;5016753;28;20046;-60
2023/05/23 01:48:28;;;;;;;49.42;24.23;;;;;;;;;;5009531;28;20033;-60
2023/05/23 01:50:55;;;;;;;49.78;24.58;;;;;;;;;;5008075;28;20033;-60
2023/05/23 01:53:22;;;;;;;50.45;24.00;;;;;;;;;;5033941;28;20499;-60
2023/05/23 01:55:50;;;;;;;48.22;23.55;;;;;;;;;;5023613;28;20033;-60
2023/05/23 01:58:16;;;;;;;41.20;21.98;;;;;;;;;;4998050;28;20036;-60
2023/05/23 02:00:43;;;;;;;45.75;22.17;;;;;;;;;;5024361;28;20667;-60
2023/05/23 02:03:10;;;;;;;44.35;23.63;;;;;;;;;;5025295;28;20042;-60
2023/05/23 02:05:36;;;;;;;53.95;25.00;;;;;;;;;;5002868;28;20037;-60
2023/05/23 02:08:03;;;;;;;56.83;27.05;;;;;;;;;;5035084;28;20049;-60
2023/05/23 02:10:29;;;;;;;64.90;29.67;;;;;;;;;;5030909;28;20045;-59
2023/05/23 02:12:55;;;;;;;57.25;27.05;;;;;;;;;;5021570;28;20395;-59
2023/05/23 02:15:21;;;;;;;58.85;28.52;;;;;;;;;;5030700;28;20123;-60
2023/05/23 02:17:48;;;;;;;60.90;28.45;;;;;;;;;;5037582;28;20407;-60
2023/05/23 02:20:17;;;;;;;65.90;29.50;;;;;;;;;;5036581;28;20043;-59
2023/05/23 02:22:43;;;;;;;70.30;31.77;;;;;;;;;;5034202;28;20040;-59
2023/05/23 02:25:10;;;;;;;79.85;34.53;;;;;;;;;;4995420;28;20661;-60
2023/05/23 02:27:36;;;;;;;75.80;33.75;;;;;;;;;;5040099;28;20052;-60
2023/05/23 02:30:02;;;;;;;77.10;35.58;;;;;;;;;;5035792;28;20487;-59
2023/05/23 02:32:31;;;;;;;79.83;35.27;;;;;;;;;;5037743;28;20029;-60
2023/05/23 02:34:58;;;;;;;76.65;33.63;;;;;;;;;;5025124;28;20686;-59
2023/05/23 02:37:24;;;;;;;80.30;34.80;;;;;;;;;;5025911;28;20040;-59
2023/05/23 02:39:50;;;;;;;83.18;35.78;;;;;;;;;;5020545;28;20032;-60
2023/05/23 02:42:17;;;;;;;95.07;38.35;;;;;;;;;;5034870;28;20045;-61
2023/05/23 02:44:43;;;;;;;91.07;38.20;;;;;;;;;;5028361;28;20506;-59
2023/05/23 02:47:10;;;;;;;87.47;35.80;;;;;;;;;;5020323;28;20495;-60
2023/05/23 02:49:36;;;;;;;92.15;38.00;;;;;;;;;;5004636;28;20198;-59
2023/05/23 02:52:02;;;;;;;82.78;36.17;;;;;;;;;;5035818;28;20049;-60
2023/05/23 02:54:28;;;;;;;85.22;34.83;;;;;;;;;;5030069;28;20105;-59
2023/05/23 02:56:55;;;;;;;84.72;36.80;;;;;;;;;;5015818;28;20038;-59
2023/05/23 02:59:22;;;;;;;101.43;39.63;;;;;;;;;;5024145;28;20049;-61
2023/05/23 03:01:48;;;;;;;94.22;40.17;;;;;;;;;;5031294;28;20033;-59
2023/05/23 03:04:15;;;;;;;95.60;39.22;;;;;;;;;;5047346;28;20036;-58
2023/05/23 03:06:43;;;;;;;93.38;38.70;;;;;;;;;;5040497;28;20037;-59
2023/05/23 03:09:09;;;;;;;97.43;39.42;;;;;;;;;;5023812;28;20033;-59
2023/05/23 03:11:36;;;;;;;100.15;40.58;;;;;;;;;;5037263;28;20036;-61
2023/05/23 03:14:02;;;;;;;94.43;39.78;;;;;;;;;;5044532;28;20507;-61
2023/05/23 03:16:29;;;;;;;105.32;43.72;;;;;;;;;;5019228;28;20049;-61
2023/05/23 03:18:55;;;;;;;120.78;44.92;;;;;;;;;;5035008;28;20059;-61
2023/05/23 03:21:21;;;;;;;117.13;44.10;;;;;;;;;;5031176;28;20052;-61
2023/05/23 03:23:48;;;;;;;103.32;40.03;;;;;;;;;;5024835;28;20025;-61
2023/05/23 03:26:14;;;;;;;97.93;39.65;;;;;;;;;;5032763;28;20513;-60
2023/05/23 03:28:40;;;;;;;98.85;40.05;;;;;;;;;;5045719;28;20038;-60
2023/05/23 03:31:06;;;;;;;96.05;39.38;;;;;;;;;;5026150;28;20041;-61
2023/05/23 03:33:32;;;;;;;93.57;39.17;;;;;;;;;;5038045;28;20471;-60
2023/05/23 03:35:59;;;;;;;97.22;39.47;;;;;;;;;;5036969;28;20052;-61
2023/05/23 03:38:26;;;;;;;101.45;41.58;;;;;;;;;;5042156;28;20052;-60
2023/05/23 03:40:52;;;;;;;106.47;43.30;;;;;;;;;;5028105;28;20037;-60
2023/05/23 03:43:19;;;;;;;102.95;42.42;;;;;;;;;;5036444;28;20080;-61
2023/05/23 03:45:46;;;;;;;105.20;41.83;;;;;;;;;;5005983;28;20036;-61
2023/05/23 03:48:14;;;;;;;109.30;44.03;;;;;;;;;;5026779;28;20046;-61
2023/05/23 03:50:41;;;;;;;104.60;41.95;;;;;;;;;;5035474;28;20033;-61
2023/05/23 03:53:08;;;;;;;104.65;42.83;;;;;;;;;;5034858;28;20046;-61
2023/05/23 03:55:35;;;;;;;112.40;45.15;;;;;;;;;;5017298;28;20038;-61
2023/05/23 03:58:01;;;;;;;110.82;44.45;;;;;;;;;;5032954;28;20044;-59
2023/05/23 04:00:28;;;;;;;110.30;44.22;;;;;;;;;;5023458;28;20029;-61
2023/05/23 04:02:56;;;;;;;106.32;43.78;;;;;;;;;;5026440;28;20045;-61
2023/05/23 04:05:23;;;;;;;104.93;42.42;;;;;;;;;;5019561;28;20037;-60
2023/05/23 04:07:50;;;;;;;100.70;41.72;;;;;;;;;;5024211;28;20029;-60
2023/05/23 04:10:17;;;;;;;107.28;42.10;;;;;;;;;;5029153;28;20507;-59
2023/05/23 04:12:44;;;;;;;111.95;46.08;;;;;;;;;;5009635;28;20045;-60
2023/05/23 04:15:14;;;;;;;116.20;44.78;;;;;;;;;;5033262;28;20425;-59
2023/05/23 04:17:50;;;;;;;102.13;41.58;;;;;;;;;;5022222;28;20032;-60
2023/05/23 04:20:17;;;;;;;111.60;44.38;;;;;;;;;;5022675;28;20056;-60
2023/05/23 04:22:43;;;;;;;104.10;44.33;;;;;;;;;;5034608;28;20041;-59
2023/05/23 04:25:11;;;;;;;104.32;43.17;;;;;;;;;;5024827;28;20052;-59
2023/05/23 04:27:46;;;;;;;103.82;42.75;;;;;;;;;;5037907;28;20042;-60
2023/05/23 04:30:12;;;;;;;103.10;44.15;;;;;;;;;;5039213;28;20402;-60
2023/05/23 04:32:41;;;;;;;;;;;;;;;;;;5039527;28;20055;-60
2023/05/23 04:35:08;;;;;;;98.18;40.80;;;;;;;;;;5008141;28;19916;-60
2023/05/23 04:37:38;;;;;;;109.68;43.25;;;;;;;;;;5015737;28;20040;-59
2023/05/23 04:40:08;;;;;;;103.38;42.30;;;;;;;;;;5042326;28;20040;-59
2023/05/23 04:42:53;;;;;;;106.30;41.90;;;;;;;;;;5038163;28;20037;-60
2023/05/23 04:45:42;;;;;;;;;;;;;;;;;;5043878;28;20043;-59
2023/05/23 04:48:33;;;;;;;;;;;;;;;;;;5034062;28;20511;-58
2023/05/23 04:51:00;;;;;;;106.82;40.97;;;;;;;;;;5016515;28;19920;-60
2023/05/23 04:53:27;;;;;;;109.47;45.47;;;;;;;;;;5033040;28;20050;-60
2023/05/23 04:55:54;;;;;;;102.65;43.70;;;;;;;;;;5008533;28;20322;-59
2023/05/23 04:58:20;;;;;;;108.93;45.03;;;;;;;;;;5021491;28;20037;-59
2023/05/23 05:00:46;;;;;;;99.82;44.22;;;;;;;;;;5009436;28;20037;-60
2023/05/23 05:03:15;;;;;;;110.82;45.30;;;;;;;;;;5020940;28;20049;-59
2023/05/23 05:05:44;;;;;;;100.28;43.90;;;;;;;;;;5033515;28;20045;-59
2023/05/23 05:08:10;;;;;;;118.28;49.20;;;;;;;;;;5038722;28;20025;-59
2023/05/23 05:10:39;;;;;;;107.60;45.30;;;;;;;;;;5035712;28;20250;-60
2023/05/23 05:13:05;;;;;;;103.90;46.30;;;;;;;;;;5028635;28;20060;-59
2023/05/23 05:15:41;;;;;;;87.78;39.92;;;;;;;;;;5023484;28;20037;-60
2023/05/23 05:18:07;;;;;;;51.75;24.30;;;;;;;;;;5016308;28;20041;-60
2023/05/23 05:20:34;;;;;;;88.00;39.95;;;;;;;;;;5029071;28;20045;-59
2023/05/23 05:23:00;;;;;;;107.75;46.22;;;;;;;;;;5041507;28;20048;-59
2023/05/23 05:25:30;;;;;;;98.47;44.55;;;;;;;;;;5041160;28;20573;-59
2023/05/23 05:28:00;;;;;;;;;;;;;;;;;;4990118;28;20033;-59
2023/05/23 05:30:27;;;;;;;94.53;42.50;;;;;;;;;;5047434;28;19913;-60
2023/05/23 05:32:57;;;;;;;95.55;42.75;;;;;;;;;;5044498;28;20049;-60
2023/05/23 05:35:23;;;;;;;93.50;41.35;;;;;;;;;;5044445;28;20041;-59
2023/05/23 05:37:50;;;;;;;104.03;44.17;;;;;;;;;;5042924;28;20048;-60
2023/05/23 05:40:16;;;;;;;100.30;44.28;;;;;;;;;;5031531;28;20029;-60
2023/05/23 05:42:42;;;;;;;96.78;43.58;;;;;;;;;;5023165;28;20041;-60
2023/05/23 05:45:10;;;;;;;90.53;42.25;;;;;;;;;;5039071;28;20319;-59
2023/05/23 05:47:38;;;;;;;101.43;44.60;;;;;;;;;;5032561;28;20045;-60
2023/05/23 05:50:06;;;;;;;97.18;42.67;;;;;;;;;;5032082;28;20045;-60
2023/05/23 05:52:37;;;;;;;98.90;42.67;;;;;;;;;;5015886;28;20049;-60
2023/05/23 05:55:12;;;;;;;95.53;40.83;;;;;;;;;;5024711;28;20506;-60
2023/05/23 05:57:41;;;;;;;88.15;41.42;;;;;;;;;;5037185;28;20041;-60
2023/05/23 06:00:13;;;;;;;90.97;40.72;;;;;;;;;;5011412;28;20483;-59
2023/05/23 06:02:50;;;;;;;88.68;40.92;;;;;;;;;;5033527;28;20029;-60
2023/05/23 06:05:25;;;;;;;86.82;40.10;;;;;;;;;;5033987;28;20037;-59
2023/05/23 06:07:52;;;;;;;100.32;43.95;;;;;;;;;;5034460;28;20476;-60
2023/05/23 06:10:18;;;;;;;92.47;41.40;;;;;;;;;;5027072;28;20053;-60
2023/05/23 06:12:44;;;;;;;95.15;42.10;;;;;;;;;;5027294;28;20439;-60
2023/05/23 06:15:14;;;;;;;89.35;41.78;;;;;;;;;;5039933;28;20037;-60
2023/05/23 06:17:41;;;;;;;;;;;;;;;;;;5008311;28;20041;-60
2023/05/23 06:20:07;;;;;;;82.10;38.33;;;;;;;;;;5034390;28;19913;-60
2023/05/23 06:22:36;;;;;;;92.65;41.17;;;;;;;;;;5028454;28;20041;-60
2023/05/23 06:25:05;;;;;;;89.15;41.78;;;;;;;;;;5020449;28;20049;-59
2023/05/23 06:27:31;;;;;;;88.72;41.55;;;;;;;;;;5020838;28;20033;-60
2023/05/23 06:29:57;;;;;;;89.75;41.25;;;;;;;;;;5020452;28;20044;-59
2023/05/23 06:32:23;;;;;;;82.72;39.83;;;;;;;;;;5036982;28;20403;-59
2023/05/23 06:34:50;;;;;;;79.00;40.15;;;;;;;;;;5032049;28;20052;-59
2023/05/23 06:37:17;;;;;;;91.47;40.63;;;;;;;;;;5036634;28;20033;-59
2023/05/23 06:39:43;;;;;;;84.35;40.50;;;;;;;;;;5021209;28;20041;-59
2023/05/23 06:42:09;;;;;;;82.50;40.92;;;;;;;;;;5037214;28;20041;-59
2023/05/23 06:44:52;;;;;;;85.32;40.85;;;;;;;;;;5029200;28;20398;-59
2023/05/23 06:47:18;;;;;;;86.30;41.20;;;;;;;;;;5039489;28;20416;-60
2023/05/23 06:49:44;;;;;;;88.47;42.33;;;;;;;;;;5015713;28;20041;-60
2023/05/23 06:52:10;;;;;;;85.85;39.63;;;;;;;;;;5034339;28;20511;-61
2023/05/23 06:54:37;;;;;;;87.38;42.65;;;;;;;;;;5043340;28;20060;-60
2023/05/23 06:57:04;;;;;;;79.18;39.47;;;;;;;;;;5035184;28;20045;-60
2023/05/23 06:59:31;;;;;;;81.55;39.55;;;;;;;;;;5035259;28;20048;-60
2023/05/23 07:01:57;;;;;;;78.30;38.47;;;;;;;;;;5033027;28;20057;-60
2023/05/23 07:04:24;;;;;;;82.57;39.88;;;;;;;;;;5023984;28;20040;-61
2023/05/23 07:06:51;;;;;;;81.28;40.97;;;;;;;;;;5019882;28;20514;-60
2023/05/23 07:09:17;;;;;;;80.85;39.92;;;;;;;;;;5032045;28;20044;-59
2023/05/23 07:11:43;;;;;;;85.70;41.72;;;;;;;;;;5032797;28;20049;-59
2023/05/23 07:14:10;;;;;;;76.90;40.80;;;;;;;;;;5034797;28;20049;-59
2023/05/23 07:16:40;;;;;;;83.47;43.28;;;;;;;;;;5038989;28;20028;-60
2023/05/23 07:19:07;;;;;;;83.78;41.90;;;;;;;;;;5035566;28;20044;-59
2023/05/23 07:21:39;;;;;;;78.93;40.03;;;;;;;;;;5024158;28;20053;-59
2023/05/23 07:24:06;;;;;;;80.35;41.35;;;;;;;;;;5036120;28;20033;-60
2023/05/23 07:26:33;;;;;;;81.50;41.78;;;;;;;;;;5035779;28;20503;-60
2023/05/23 07:28:59;;;;;;;81.88;40.15;;;;;;;;;;5042054;28;20053;-61
2023/05/23 07:31:26;;;;;;;77.45;39.60;;;;;;;;;;5027121;28;20041;-60
2023/05/23 07:33:55;;;;;;;;;;;;;;;;;;5025209;28;20041;-60
2023/05/23 07:36:28;;;;;;;74.47;39.25;;;;;;;;;;5005594;28;19913;-59
2023/05/23 07:38:55;;;;;;;80.65;40.45;;;;;;;;;;5039334;28;20499;-60
2023/05/23 07:41:21;;;;;;;79.80;41.42;;;;;;;;;;5036106;28;20479;-59
2023/05/23 07:43:47;;;;;;;82.90;42.00;;;;;;;;;;5019500;28;20143;-60
2023/05/23 07:46:14;;;;;;;80.82;40.67;;;;;;;;;;5043082;28;20319;-60
2023/05/23 07:48:40;;;;;;;79.70;43.13;;;;;;;;;;5030301;28;20040;-59
2023/05/23 07:51:06;;;;;;;85.07;43.35;;;;;;;;;;5045638;28;20045;-60
2023/05/23 07:53:33;;;;;;;84.10;43.10;;;;;;;;;;5043052;28;20060;-60
2023/05/23 07:56:02;;;;;;;82.50;43.20;;;;;;;;;;5019588;28;20037;-60
2023/05/23 07:58:33;;;;;;;76.70;42.72;;;;;;;;;;5030464;28;20042;-58
2023/05/23 08:00:59;;;;;;;77.20;40.38;;;;;;;;;;5014837;28;20053;-60
2023/05/23 08:04:05;;;;;;;74.65;39.88;;;;;;;;;;5040231;28;20525;-60
2023/05/23 08:06:36;;;;;;;75.68;41.28;;;;;;;;;;5039903;28;20041;-59
2023/05/23 08:09:06;;;;;;;81.18;41.10;;;;;;;;;;5020252;28;20057;-59
2023/05/23 08:11:36;;;;;;;77.43;41.70;;;;;;;;;;5030198;28;20044;-59
2023/05/23 08:14:03;;;;;;;78.20;41.40;;;;;;;;;;5035972;28;20045;-59
2023/05/23 08:16:38;;;;;;;77.53;41.15;;;;;;;;;;5035595;28;20037;-59
2023/05/23 08:19:18;;;;;;;77.05;40.33;;;;;;;;;;5022703;28;20041;-60
2023/05/23 08:21:47;;;;;;;71.70;39.88;;;;;;;;;;5007527;28;20045;-59
2023/05/23 08:24:14;;;;;;;76.15;38.63;;;;;;;;;;5046312;28;20033;-60
2023/05/23 08:26:41;;;;;;;69.60;38.50;;;;;;;;;;4999809;28;20037;-60
2023/05/23 08:29:10;;;;;;;66.68;38.25;;;;;;;;;;5039832;28;20048;-60
2023/05/23 08:31:36;;;;;;;66.05;37.33;;;;;;;;;;5027729;28;20395;-59
2023/05/23 08:34:03;;;;;;;61.97;37.05;;;;;;;;;;5035173;28;20041;-59
2023/05/23 08:36:35;;;;;;;63.42;36.35;;;;;;;;;;5031945;28;20033;-59
2023/05/23 08:39:01;;;;;;;66.80;37.45;;;;;;;;;;5025174;28;20640;-58
2023/05/23 08:41:31;;;;;;;64.00;34.75;;;;;;;;;;5012516;28;20033;-59
2023/05/23 08:44:02;;;;;;;60.30;35.22;;;;;;;;;;5029978;28;20052;-59
2023/05/23 08:46:39;;;;;;;56.33;33.90;;;;;;;;;;5031070;28;20033;-60
2023/05/23 08:49:06;;;;;;;57.30;34.65;;;;;;;;;;5044572;28;20502;-60
2023/05/23 08:51:36;;;;;;;58.45;34.33;;;;;;;;;;5018845;28;20037;-60
2023/05/23 08:54:09;;;;;;;63.42;36.22;;;;;;;;;;5029460;28;20033;-60
2023/05/23 08:56:37;;;;;;;70.07;37.77;;;;;;;;;;5038818;28;20044;-60
2023/05/23 08:59:04;;;;;;;68.93;38.08;;;;;;;;;;5001284;28;20517;-60
2023/05/23 09:01:32;;;;;;;64.88;37.22;;;;;;;;;;5007265;28;20509;-60
2023/05/23 09:04:03;;;;;;;66.97;36.60;;;;;;;;;;5035951;28;20303;-59
2023/05/23 09:06:43;;;;;;;69.20;37.95;;;;;;;;;;5022374;28;20040;-60
2023/05/23 09:09:10;;;;;;;65.55;36.92;;;;;;;;;;5026546;28;20029;-60
2023/05/23 09:11:38;;;;;;;65.85;37.28;;;;;;;;;;5017846;28;20045;-60
2023/05/23 09:14:08;;;;;;;69.28;38.00;;;;;;;;;;5030161;28;20049;-59
2023/05/23 09:16:35;;;;;;;63.85;36.33;;;;;;;;;;5044729;28;20029;-61
2023/05/23 09:19:13;;;;;;;64.75;36.95;;;;;;;;;;5028678;28;20052;-60
2023/05/23 09:21:45;;;;;;;67.45;37.88;;;;;;;;;;5040565;28;20036;-59
2023/05/23 09:24:21;;;;;;;68.28;38.53;;;;;;;;;;5043287;28;20045;-60
2023/05/23 09:26:47;;;;;;;66.25;36.33;;;;;;;;;;5035784;28;20044;-61
2023/05/23 09:29:19;;;;;;;59.17;34.58;;;;;;;;;;4999415;28;20033;-60
2023/05/23 09:31:45;;;;;;;56.35;33.63;;;;;;;;;;5041848;28;20055;-60
2023/05/23 09:34:12;;;;;;;57.65;33.13;;;;;;;;;;5035424;28;20044;-61
2023/05/23 09:36:40;;;;;;;48.72;30.85;;;;;;;;;;5030877;28;20036;-60
2023/05/23 09:39:06;;;;;;;50.92;30.83;;;;;;;;;;5029181;28;20037;-61
2023/05/23 09:41:34;;;;;;;53.10;31.30;;;;;;;;;;5040649;28;20057;-61
2023/05/23 09:44:08;;;;;;;52.25;30.20;;;;;;;;;;5017323;28;20041;-60
2023/05/23 09:46:36;;;;;;;52.05;30.13;;;;;;;;;;5033884;28;20041;-60
2023/05/23 09:49:14;;;;;;;51.70;30.23;;;;;;;;;;5023772;28;20037;-60
2023/05/23 09:51:41;;;;;;;48.15;30.00;;;;;;;;;;5037829;28;20049;-60
2023/05/23 09:54:08;;;;;;;57.42;31.77;;;;;;;;;;5006795;28;20044;-60
2023/05/23 09:56:38;;;;;;;48.97;29.40;;;;;;;;;;5037996;28;20048;-60
2023/05/23 09:59:07;;;;;;;48.95;29.85;;;;;;;;;;5041852;28;20041;-59
2023/05/23 10:01:34;;;;;;;44.85;27.85;;;;;;;;;;5043448;28;20053;-61
2023/05/23 10:04:03;;;;;;;42.97;25.83;;;;;;;;;;5047967;28;20039;-60
2023/05/23 10:06:53;;;;;;;42.67;27.25;;;;;;;;;;5036202;28;20034;-59
2023/05/23 10:09:23;;;;;;;39.53;24.85;;;;;;;;;;5032753;28;20028;-59
2023/05/23 10:12:28;;;;;;;46.08;25.73;;;;;;;;;;5033843;28;20060;-60
2023/05/23 10:14:56;;;;;;;37.60;24.13;;;;;;;;;;5037042;28;20056;-60
2023/05/23 10:17:36;;;;;;;41.47;24.83;;;;;;;;;;5015923;28;20041;-60
2023/05/23 10:20:07;;;;;;;45.20;25.77;;;;;;;;;;5011814;28;20048;-60
2023/05/23 10:22:38;;;;;;;50.40;27.02;;;;;;;;;;5029267;28;20060;-60
2023/05/23 10:25:06;;;;;;;42.47;26.55;;;;;;;;;;5018097;28;20041;-60
2023/05/23 10:27:33;;;;;;;41.05;25.08;;;;;;;;;;5032202;28;20050;-60
2023/05/23 10:30:00;;;;;;;40.35;24.75;;;;;;;;;;5019029;28;20065;-60
2023/05/23 10:32:29;;;;;;;40.97;24.65;;;;;;;;;;5040393;28;20025;-60
2023/05/23 10:35:02;;;;;;;40.25;25.58;;;;;;;;;;5039252;28;20064;-59
2023/05/23 10:37:45;;;;;;;40.20;25.15;;;;;;;;;;5041168;28;20052;-60
2023/05/23 10:40:41;;;;;;;46.60;26.50;;;;;;;;;;5044824;28;20044;-60
2023/05/23 10:43:23;;;;;;;47.60;25.25;;;;;;;;;;5043716;28;20042;-60
2023/05/23 10:45:50;;;;;;;41.80;25.25;;;;;;;;;;5044806;28;20315;-60
2023/05/23 10:48:34;;;;;;;41.90;24.75;;;;;;;;;;5041861;28;20037;-60
2023/05/23 10:51:06;;;;;;;38.05;24.80;;;;;;;;;;5042938;28;20047;-60
2023/05/23 10:53:41;;;;;;;40.03;23.05;;;;;;;;;;5043984;28;20063;-59
2023/05/23 10:56:11;;;;;;;35.50;22.85;;;;;;;;;;5041487;28;20053;-59
2023/05/23 10:58:38;;;;;;;35.90;23.48;;;;;;;;;;5023458;28;20036;-58
2023/05/23 11:01:06;;;;;;;37.40;21.77;;;;;;;;;;5009027;28;20044;-59
2023/05/23 11:03:44;;;;;;;33.40;21.88;;;;;;;;;;5038010;28;20047;-60
2023/05/23 11:06:29;;;;;;;32.67;20.95;;;;;;;;;;5036290;28;20041;-60
2023/05/23 11:09:09;;;;;;;37.33;22.23;;;;;;;;;;5033335;28;20491;-60
2023/05/23 11:11:47;;;;;;;35.03;22.65;;;;;;;;;;5034211;28;20045;-60
2023/05/23 11:14:14;;;;;;;37.20;22.48;;;;;;;;;;5017406;28;20044;-60
2023/05/23 11:16:41;;;;;;;36.45;21.48;;;;;;;;;;5034669;28;20216;-59
2023/05/23 11:19:20;;;;;;;34.83;20.10;;;;;;;;;;5035940;28;20037;-60
2023/05/23 11:21:59;;;;;;;36.90;20.17;;;;;;;;;;5034766;28;20052;-61
2023/05/23 11:24:47;;;;;;;28.80;19.33;;;;;;;;;;5037144;28;20052;-61
2023/05/23 11:27:14;;;;;;;30.15;19.40;;;;;;;;;;5036728;28;20041;-60
2023/05/23 11:29:40;;;;;;;32.35;19.75;;;;;;;;;;5037327;28;20056;-61
2023/05/23 11:32:11;;;;;;;32.00;19.33;;;;;;;;;;5022178;28;20036;-60
2023/05/23 11:34:39;;;;;;;32.72;21.17;;;;;;;;;;5036398;28;20037;-60
2023/05/23 11:37:07;;;;;;;31.52;19.73;;;;;;;;;;5028209;28;20048;-60
2023/05/23 11:39:33;;;;;;;32.67;19.20;;;;;;;;;;5014225;28;20037;-60
2023/05/23 11:42:03;;;;;;;33.10;19.05;;;;;;;;;;5031512;28;20451;-60
2023/05/23 11:44:29;;;;;;;36.00;18.83;;;;;;;;;;5035971;28;20056;-60
2023/05/23 11:47:03;;;;;;;24.95;16.48;;;;;;;;;;5037212;28;20403;-60
2023/05/23 11:49:31;;;;;;;30.40;17.98;;;;;;;;;;5040150;28;20049;-59
2023/05/23 11:52:01;;;;;;;26.90;18.13;;;;;;;;;;5036669;28;20045;-59
2023/05/23 11:54:27;;;;;;;29.55;17.83;;;;;;;;;;5027111;28;20044;-59
2023/05/23 11:56:54;;;;;;;27.00;17.23;;;;;;;;;;5023999;28;20044;-59
2023/05/23 11:59:24;;;;;;;27.38;17.80;;;;;;;;;;5037744;28;20510;-60
2023/05/23 12:01:52;;;;;;;27.25;17.80;;;;;;;;;;5023498;28;20041;-59
2023/05/23 12:04:18;;;;;;;24.95;16.48;;;;;;;;;;5014825;28;20414;-59
2023/05/23 12:06:48;;;;;;;26.85;17.15;;;;;;;;;;5021760;28;20037;-58
2023/05/23 12:09:15;;;;;;;25.90;16.92;;;;;;;;;;5038586;28;20044;-58
2023/05/23 12:11:44;;;;;;;23.02;15.55;;;;;;;;;;5040020;28;20049;-59
2023/05/23 12:14:15;;;;;;;23.27;15.90;;;;;;;;;;5019442;28;20044;-59
2023/05/23 12:16:44;;;;;;;21.55;14.57;;;;;;;;;;5030791;28;20045;-59
2023/05/23 12:19:11;;;;;;;22.98;14.45;;;;;;;;;;5025942;28;20044;-59
2023/05/23 12:21:47;;;;;;;22.45;14.70;;;;;;;;;;5031012;28;20037;-60
2023/05/23 12:24:22;;;;;;;18.83;13.60;;;;;;;;;;5041000;28;20044;-59
2023/05/23 12:26:56;;;;;;;21.13;13.30;;;;;;;;;;5034316;28;20041;-60
2023/05/23 12:29:29;;;;;;;19.95;13.60;;;;;;;;;;5025000;28;20555;-59
2023/05/23 12:31:58;;;;;;;20.30;14.30;;;;;;;;;;5035715;28;20038;-59
2023/05/23 12:34:24;;;;;;;21.52;14.48;;;;;;;;;;5036418;28;20037;-59
2023/05/23 12:36:58;;;;;;;19.45;13.40;;;;;;;;;;5046803;28;20044;-60
2023/05/23 12:39:27;;;;;;;21.50;13.80;;;;;;;;;;5046112;28;20068;-60
2023/05/23 12:41:57;;;;;;;17.15;12.93;;;;;;;;;;5043809;28;20041;-59
2023/05/23 12:44:30;;;;;;;17.63;12.27;;;;;;;;;;5043161;28;20398;-60
2023/05/23 12:46:56;;;;;;;18.67;12.15;;;;;;;;;;5029971;28;20387;-59
2023/05/23 12:49:23;;;;;;;20.02;12.75;;;;;;;;;;5034155;28;20041;-60
2023/05/23 12:51:49;;;;;;;15.88;11.80;;;;;;;;;;5022019;28;20033;-59
2023/05/23 12:54:16;;;;;;;16.63;11.85;;;;;;;;;;5038687;28;20041;-59
2023/05/23 12:56:42;;;;;;;15.45;11.45;;;;;;;;;;5032578;28;20041;-59
2023/05/23 12:59:08;;;;;;;14.77;11.30;;;;;;;;;;5032182;28;20041;-59
2023/05/23 13:01:34;;;;;;;15.63;11.13;;;;;;;;;;5045675;28;20049;-60
2023/05/23 13:04:01;;;;;;;15.02;11.55;;;;;;;;;;5044977;28;20394;-60
2023/05/23 13:06:27;;;;;;;15.18;11.35;;;;;;;;;;5036263;28;20390;-60
2023/05/23 13:08:54;;;;;;;15.82;12.25;;;;;;;;;;5042336;28;20029;-60
2023/05/23 13:11:21;;;;;;;14.35;11.10;;;;;;;;;;5019367;28;20057;-60
2023/05/23 13:13:48;;;;;;;16.38;12.35;;;;;;;;;;5041392;28;20402;-60
2023/05/23 13:16:15;;;;;;;16.30;12.43;;;;;;;;;;5043959;28;20041;-60
2023/05/23 13:18:41;;;;;;;15.73;12.32;;;;;;;;;;5044986;28;20045;-60
2023/05/23 13:21:08;;;;;;;15.90;12.10;;;;;;;;;;5006178;28;20046;-59
2023/05/23 13:23:35;;;;;;;15.48;11.63;;;;;;;;;;5028443;28;20045;-59
2023/05/23 13:26:02;;;;;;;17.08;12.35;;;;;;;;;;5033339;28;20045;-60
2023/05/23 13:28:28;;;;;;;15.68;11.85;;;;;;;;;;5017902;28;20029;-60
2023/05/23 13:30:54;;;;;;;16.23;12.00;;;;;;;;;;5033236;28;20040;-60
2023/05/23 13:33:22;;;;;;;19.65;11.40;;;;;;;;;;5029717;28;20044;-60
2023/05/23 13:35:49;;;;;;;16.42;11.35;;;;;;;;;;5042776;28;20041;-60
2023/05/23 13:38:19;;;;;;;15.85;12.35;;;;;;;;;;5045472;28;20036;-61
2023/05/23 13:40:45;;;;;;;16.30;12.05;;;;;;;;;;5040814;28;20040;-61
2023/05/23 13:43:12;;;;;;;14.45;10.73;;;;;;;;;;5026153;28;20037;-61
2023/05/23 13:45:38;;;;;;;12.27;10.32;;;;;;;;;;5025802;28;20052;-60
2023/05/23 13:48:04;;;;;;;15.18;10.48;;;;;;;;;;5008924;28;20033;-60
2023/05/23 13:50:30;;;;;;;15.10;10.63;;;;;;;;;;5043912;28;20037;-60
2023/05/23 13:52:57;;;;;;;15.50;9.98;;;;;;;;;;5046213;28;20040;-60
2023/05/23 13:55:23;;;;;;;13.20;10.77;;;;;;;;;;5045836;28;20072;-61
2023/05/23 13:57:49;;;;;;;14.00;11.13;;;;;;;;;;5040697;28;20068;-60
2023/05/23 14:00:16;;;;;;;14.80;10.98;;;;;;;;;;5041227;28;20049;-60
2023/05/23 14:02:42;;;;;;;13.18;10.15;;;;;;;;;;5035579;28;20033;-60
2023/05/23 14:05:08;;;;;;;14.57;10.80;;;;;;;;;;5038375;28;20052;-60
2023/05/23 14:07:35;;;;;;;15.32;11.23;;;;;;;;;;5058242;28;20035;-61
2023/05/23 14:10:01;;;;;;;16.02;11.30;;;;;;;;;;5045001;28;20366;-60
2023/05/23 14:12:27;;;;;;;12.32;9.85;;;;;;;;;;5039971;28;20068;-60
2023/05/23 14:14:53;;;;;;;12.77;9.80;;;;;;;;;;5037365;28;20057;-60
2023/05/23 14:17:20;;;;;;;12.32;9.75;;;;;;;;;;5000818;28;20034;-60
2023/05/23 14:19:46;;;;;;;14.55;10.20;;;;;;;;;;5034066;28;20041;-59
2023/05/23 14:22:12;;;;;;;13.00;9.77;;;;;;;;;;5038610;28;20082;-60
2023/05/23 14:24:38;;;;;;;12.70;9.27;;;;;;;;;;5035393;28;20064;-60
2023/05/23 14:27:05;;;;;;;15.80;10.18;;;;;;;;;;5035304;28;20125;-59
2023/05/23 14:29:31;;;;;;;12.35;8.70;;;;;;;;;;5040282;28;20032;-58